createdAt,value
2022-11-04T00:01:06.734Z,94638.06
2022-11-04T00:03:36.268Z,94651.22
2022-11-04T00:06:06.352Z,94658.72
2022-11-04T00:08:36.271Z,94662.50
2022-11-04T00:11:24.887Z,94652.59
2022-11-04T00:13:54.265Z,94654.00
2022-11-04T00:16:41.379Z,94672.84
2022-11-04T00:19:10.820Z,94659.44
2022-11-04T00:21:57.801Z,94674.84
2022-11-04T00:24:44.756Z,94665.88
2022-11-04T00:27:36.251Z,94670.38
2022-11-04T00:30:10.520Z,94671.53
2022-11-04T00:32:57.459Z,94682.44
2022-11-04T00:35:26.866Z,94686.88
2022-11-04T00:37:56.274Z,94685.03
2022-11-04T00:40:25.645Z,94701.00
2022-11-04T00:42:56.459Z,94693.47
2022-11-04T00:45:25.836Z,94701.88
2022-11-04T00:47:55.171Z,94717.53
2022-11-04T00:50:24.527Z,94711.13
2022-11-04T00:52:59.780Z,94710.91
2022-11-04T00:55:29.865Z,94721.75
2022-11-04T00:58:01.027Z,94732.91
2022-11-04T01:00:30.446Z,94727.53
2022-11-04T01:03:00.883Z,94731.94
2022-11-04T01:05:30.394Z,94728.19
2022-11-04T01:07:59.759Z,94734.47
2022-11-04T01:10:29.209Z,94739.09
2022-11-04T01:13:00.020Z,94736.53
2022-11-04T01:15:29.403Z,94734.94
2022-11-04T01:17:58.779Z,94733.28
2022-11-04T01:20:28.227Z,94738.72
2022-11-04T01:22:57.759Z,94737.44
2022-11-04T01:25:27.529Z,94741.50
2022-11-04T01:27:57.464Z,94737.25
2022-11-04T01:30:28.266Z,94742.06
2022-11-04T01:32:57.743Z,94728.38
2022-11-04T01:35:27.212Z,94728.16
2022-11-04T01:37:56.559Z,94723.94
2022-11-04T01:40:26.737Z,94728.28
2022-11-04T01:42:56.130Z,94725.81
2022-11-04T01:45:27.319Z,94725.88
2022-11-04T01:48:03.423Z,94730.44
2022-11-04T01:50:35.853Z,94727.25
2022-11-04T01:53:12.386Z,94720.53
2022-11-04T01:55:47.248Z,94713.84
2022-11-04T01:58:23.380Z,94720.50
2022-11-04T02:00:54.256Z,94727.22
2022-11-04T02:03:30.260Z,94730.97
2022-11-04T02:06:00.802Z,94715.41
2022-11-04T02:08:30.919Z,94714.34
2022-11-04T02:11:04.386Z,94729.63
2022-11-04T02:13:36.288Z,94720.53
2022-11-04T02:16:19.271Z,94724.06
2022-11-04T02:19:04.940Z,94717.91
2022-11-04T02:22:20.427Z,94719.78
2022-11-04T02:25:27.643Z,94723.28
2022-11-04T02:28:37.472Z,94720.34
2022-11-04T02:31:16.183Z,94714.94
2022-11-04T02:33:55.020Z,94722.47
2022-11-04T02:36:35.393Z,94721.47
2022-11-04T02:39:18.030Z,94722.78
2022-11-04T02:41:58.072Z,94723.13
2022-11-04T02:44:36.722Z,94730.38
2022-11-04T02:47:14.928Z,94722.59
2022-11-04T02:49:53.916Z,94727.41
2022-11-04T02:52:32.109Z,94726.13
2022-11-04T02:55:07.611Z,94718.03
2022-11-04T02:57:40.992Z,94717.75
2022-11-04T03:00:14.407Z,94717.47
2022-11-04T03:02:53.191Z,94720.97
2022-11-04T03:05:28.237Z,94725.75
2022-11-04T03:08:02.697Z,94712.56
2022-11-04T03:10:44.227Z,94704.50
2022-11-04T03:13:18.631Z,94709.16
2022-11-04T03:15:52.885Z,94703.19
2022-11-04T03:18:34.031Z,94701.41
2022-11-04T03:21:08.413Z,94691.16
2022-11-04T03:23:38.601Z,94692.56
2022-11-04T03:26:16.316Z,94699.28
2022-11-04T03:28:56.362Z,94711.03
2022-11-04T03:31:38.615Z,94710.69
2022-11-04T03:34:09.340Z,94706.09
2022-11-04T03:36:38.868Z,94695.41
2022-11-04T03:39:08.550Z,94704.81
2022-11-04T03:41:44.878Z,94704.00
2022-11-04T03:44:14.244Z,94711.03
2022-11-04T03:46:43.829Z,94704.28
2022-11-04T03:49:16.410Z,94703.97
2022-11-04T03:51:45.848Z,94704.28
2022-11-04T03:54:16.516Z,94703.81
2022-11-04T03:57:18.547Z,94703.59
2022-11-04T04:00:12.043Z,94703.34
2022-11-04T04:03:03.386Z,94702.56
2022-11-04T04:05:41.068Z,94695.94
2022-11-04T04:08:21.709Z,94690.59
2022-11-04T04:11:04.218Z,94682.81
2022-11-04T04:13:43.905Z,94684.16
2022-11-04T04:16:23.375Z,94680.97
2022-11-04T04:19:04.268Z,94679.59
2022-11-04T04:21:44.144Z,94697.31
2022-11-04T04:24:36.371Z,94702.94
2022-11-04T04:27:23.571Z,94711.22
2022-11-04T04:29:54.872Z,94703.47
2022-11-04T04:32:27.875Z,94698.91
2022-11-04T04:35:17.615Z,94690.84
2022-11-04T04:37:50.446Z,94706.41
2022-11-04T04:40:42.892Z,94706.09
2022-11-04T04:43:35.064Z,94699.06
2022-11-04T04:46:04.854Z,94680.88
2022-11-04T04:48:34.405Z,94679.03
2022-11-04T04:51:03.907Z,94691.63
2022-11-04T04:53:34.877Z,94714.16
2022-11-04T04:56:04.509Z,94714.38
2022-11-04T04:58:33.894Z,94706.78
2022-11-04T05:01:04.417Z,94717.75
2022-11-04T05:03:33.883Z,94717.00
2022-11-04T05:06:03.257Z,94715.91
2022-11-04T05:08:35.159Z,94711.09
2022-11-04T05:11:04.794Z,94709.22
2022-11-04T05:13:34.197Z,94706.53
2022-11-04T05:16:08.798Z,94714.31
2022-11-04T05:18:38.686Z,94717.00
2022-11-04T05:21:12.435Z,94733.63
2022-11-04T05:23:43.313Z,94729.63
2022-11-04T05:26:13.919Z,94726.94
2022-11-04T05:28:43.305Z,94721.66
2022-11-04T05:31:12.882Z,94732.13
2022-11-04T05:33:42.299Z,94739.72
2022-11-04T05:36:15.228Z,94734.63
2022-11-04T05:38:51.650Z,94734.41
2022-11-04T05:41:26.585Z,94742.19
2022-11-04T05:43:59.442Z,94742.25
2022-11-04T05:46:30.079Z,94724.56
2022-11-04T05:48:59.452Z,94709.56
2022-11-04T05:51:30.015Z,94701.03
2022-11-04T05:54:01.581Z,94710.69
2022-11-04T05:56:30.944Z,94718.19
2022-11-04T05:59:00.344Z,94727.31
2022-11-04T06:01:36.301Z,94728.38
2022-11-04T06:04:07.968Z,94722.22
2022-11-04T06:06:39.019Z,94731.59
2022-11-04T06:09:10.213Z,94735.91
2022-11-04T06:11:39.999Z,94749.56
2022-11-04T06:14:10.282Z,94755.72
2022-11-04T06:16:40.991Z,94753.03
2022-11-04T06:19:13.470Z,94740.44
2022-11-04T06:21:45.380Z,94752.75
2022-11-04T06:24:16.119Z,94758.09
2022-11-04T06:26:45.827Z,94772.31
2022-11-04T06:29:15.177Z,94770.41
2022-11-04T06:31:44.612Z,94754.66
2022-11-04T06:34:14.071Z,94755.44
2022-11-04T06:36:43.685Z,94766.41
2022-11-04T06:39:13.362Z,94754.63
2022-11-04T06:41:46.369Z,94747.66
2022-11-04T06:44:17.060Z,94760.53
2022-11-04T06:46:46.467Z,94752.78
2022-11-04T06:49:19.959Z,94750.34
2022-11-04T06:51:50.347Z,94764.81
2022-11-04T06:54:19.938Z,94774.97
2022-11-04T06:56:51.201Z,94763.47
2022-11-04T06:59:21.862Z,94733.22
2022-11-04T07:01:52.561Z,94731.34
2022-11-04T07:04:22.060Z,94731.09
2022-11-04T07:06:51.466Z,94726.28
2022-11-04T07:09:20.887Z,94721.47
2022-11-04T07:11:51.582Z,94726.00
2022-11-04T07:14:21.096Z,94730.03
2022-11-04T07:16:52.167Z,94734.31
2022-11-04T07:19:21.710Z,94733.78
2022-11-04T07:21:51.085Z,94736.97
2022-11-04T07:24:20.803Z,94743.66
2022-11-04T07:26:51.576Z,94742.88
2022-11-04T07:29:21.044Z,94763.19
2022-11-04T07:31:50.426Z,94767.22
2022-11-04T07:34:19.820Z,94769.91
2022-11-04T07:36:49.182Z,94779.78
2022-11-04T07:39:18.847Z,94788.06
2022-11-04T07:41:48.243Z,94784.59
2022-11-04T07:44:19.067Z,94780.84
2022-11-04T07:46:48.486Z,94784.34
2022-11-04T07:49:17.892Z,94778.97
2022-11-04T07:51:48.608Z,94772.84
2022-11-04T07:54:18.212Z,94776.31
2022-11-04T07:56:47.550Z,94791.28
2022-11-04T07:59:18.519Z,94801.19
2022-11-04T08:01:47.989Z,94819.66
2022-11-04T08:04:17.503Z,94818.59
2022-11-04T08:06:46.838Z,94815.38
2022-11-04T08:09:16.432Z,94800.38
2022-11-04T08:11:45.854Z,94807.09
2022-11-04T08:14:15.264Z,94805.50
2022-11-04T08:16:46.153Z,94797.47
2022-11-04T08:19:15.631Z,94795.84
2022-11-04T08:21:45.084Z,94795.56
2022-11-04T08:24:14.465Z,94802.25
2022-11-04T08:26:43.838Z,94793.44
2022-11-04T08:29:13.608Z,94780.59
2022-11-04T08:31:45.011Z,94769.88
2022-11-04T08:34:14.702Z,94764.25
2022-11-04T08:36:44.111Z,94761.06
2022-11-04T08:39:14.356Z,94754.91
2022-11-04T08:41:45.484Z,94739.94
2022-11-04T08:44:15.871Z,94736.44
2022-11-04T08:46:48.427Z,94753.84
2022-11-04T08:49:21.246Z,94746.59
2022-11-04T08:51:56.547Z,94751.41
2022-11-04T08:54:26.886Z,94746.88
2022-11-04T08:56:57.407Z,94740.44
2022-11-04T08:59:26.801Z,94724.13
2022-11-04T09:01:57.707Z,94727.06
2022-11-04T09:04:27.151Z,94731.63
2022-11-04T09:06:57.391Z,94725.19
2022-11-04T09:09:26.833Z,94727.88
2022-11-04T09:11:56.174Z,94730.53
2022-11-04T09:14:25.519Z,94723.59
2022-11-04T09:16:58.102Z,94724.13
2022-11-04T09:19:27.779Z,94720.66
2022-11-04T09:21:57.154Z,94727.88
2022-11-04T09:24:26.689Z,94730.81
2022-11-04T09:26:56.151Z,94730.28
2022-11-04T09:29:26.644Z,94726.25
2022-11-04T09:31:56.340Z,94730.53
2022-11-04T09:34:27.301Z,94718.19
2022-11-04T09:36:57.549Z,94728.09
2022-11-04T09:39:27.848Z,94728.66
2022-11-04T09:42:22.299Z,94721.94
2022-11-04T09:47:54.266Z,94721.72
2022-11-04T09:50:30.893Z,94724.13
2022-11-04T09:53:09.459Z,94731.63
2022-11-04T09:55:50.217Z,94741.53
2022-11-04T09:58:20.194Z,94727.88
2022-11-04T10:01:04.600Z,94730.00
2022-11-04T10:03:57.746Z,94731.88
2022-11-04T10:06:45.907Z,94717.44
2022-11-04T10:09:34.291Z,94705.94
2022-11-04T10:12:21.991Z,94712.63
2022-11-04T10:15:20.673Z,94700.84
2022-11-04T10:18:15.205Z,94699.50
2022-11-04T10:20:58.488Z,94699.22
2022-11-04T10:23:38.267Z,94698.44
2022-11-04T10:26:17.986Z,94691.22
2022-11-04T10:28:56.153Z,94683.97
2022-11-04T10:31:26.324Z,94689.06
2022-11-04T10:34:04.310Z,94685.84
2022-11-04T10:36:34.812Z,94681.03
2022-11-04T10:39:18.292Z,94673.53
2022-11-04T10:41:47.633Z,94683.97
2022-11-04T10:44:25.688Z,94677.78
2022-11-04T10:47:09.885Z,94668.41
2022-11-04T10:50:26.621Z,94671.09
2022-11-04T10:52:43.783Z,94672.41
2022-11-04T10:55:32.923Z,94680.97
2022-11-04T10:58:03.128Z,94683.66
2022-11-04T11:00:39.620Z,94678.81
2022-11-04T11:03:29.482Z,94673.41
2022-11-04T11:06:28.215Z,94672.59
2022-11-04T11:09:13.526Z,94669.91
2022-11-04T11:11:49.019Z,94671.53
2022-11-04T11:14:36.519Z,94675.53
2022-11-04T11:17:25.762Z,94672.31
2022-11-04T11:20:05.037Z,94684.63
2022-11-04T11:22:41.320Z,94686.50
2022-11-04T11:25:29.219Z,94683.56
2022-11-04T11:28:02.876Z,94682.47
2022-11-04T11:30:36.932Z,94679.00
2022-11-04T11:33:15.556Z,94681.94
2022-11-04T11:35:52.585Z,94692.09
2022-11-04T11:38:25.716Z,94698.25
2022-11-04T11:41:23.761Z,94706.31
2022-11-04T11:43:57.946Z,94693.16
2022-11-04T11:46:30.467Z,94698.78
2022-11-04T11:49:02.326Z,94701.97
2022-11-04T11:51:36.496Z,94701.72
2022-11-04T11:54:22.684Z,94699.56
2022-11-04T12:02:57.953Z,94697.13
2022-11-04T12:12:04.550Z,94700.91
2022-11-04T12:14:55.489Z,94703.84
2022-11-04T12:17:43.353Z,94702.50
2022-11-04T12:20:39.992Z,94698.22
2022-11-04T12:23:19.710Z,94699.84
2022-11-04T12:26:07.057Z,94695.56
2022-11-04T12:29:00.692Z,94693.66
2022-11-04T12:31:42.510Z,94688.59
2022-11-04T12:34:33.217Z,94695.56
2022-11-04T12:37:21.751Z,94686.72
2022-11-04T12:40:16.190Z,94673.59
2022-11-04T12:43:09.501Z,94677.59
2022-11-04T12:46:00.977Z,94678.94
2022-11-04T12:48:57.386Z,94681.88
2022-11-04T12:51:46.321Z,94692.88
2022-11-04T12:54:44.308Z,94699.56
2022-11-04T12:57:24.903Z,94708.94
2022-11-04T13:00:12.748Z,94723.16
2022-11-04T13:02:48.674Z,94738.69
2022-11-04T13:05:41.238Z,94749.41
2022-11-04T13:08:25.220Z,94742.44
2022-11-04T13:11:00.636Z,94744.31
2022-11-04T13:13:37.644Z,94740.06
2022-11-04T13:16:11.939Z,94745.19
2022-11-04T13:18:45.690Z,94742.25
2022-11-04T13:21:22.862Z,94740.91
2022-11-04T13:23:59.018Z,94741.44
2022-11-04T13:26:28.473Z,94738.25
2022-11-04T13:29:08.979Z,94744.69
2022-11-04T13:31:52.095Z,94754.88
2022-11-04T13:34:37.487Z,94748.72
2022-11-04T13:37:21.092Z,94750.31
2022-11-04T13:39:59.062Z,94748.72
2022-11-04T13:43:20.486Z,94750.06
2022-11-04T13:45:55.313Z,94757.81
2022-11-04T13:48:28.210Z,94753.28
2022-11-04T13:51:01.882Z,94753.28
2022-11-04T13:53:55.420Z,94751.41
2022-11-04T13:56:35.548Z,94743.63
2022-11-04T13:59:20.928Z,94752.47
2022-11-04T14:01:50.661Z,94746.59
2022-11-04T14:04:30.347Z,94753.81
2022-11-04T14:07:03.968Z,94749.00
2022-11-04T14:09:54.709Z,94750.06
2022-11-04T14:12:35.480Z,94747.66
2022-11-04T14:15:23.668Z,94748.47
2022-11-04T14:18:07.846Z,94745.28
2022-11-04T14:21:07.780Z,94750.91
2022-11-04T14:23:38.576Z,94741.53
2022-11-04T14:26:11.959Z,94740.44
2022-11-04T14:28:46.180Z,94739.91
2022-11-04T14:31:35.871Z,94737.25
2022-11-04T14:34:06.515Z,94738.00
2022-11-04T14:36:40.072Z,94731.06
2022-11-04T14:39:25.462Z,94731.59
2022-11-04T14:42:01.919Z,94732.13
2022-11-04T14:44:36.559Z,94733.19
2022-11-04T14:47:19.689Z,94732.94
2022-11-04T14:49:53.030Z,94734.81
2022-11-04T14:52:31.307Z,94734.84
2022-11-04T14:55:09.635Z,94742.88
2022-11-04T14:57:42.443Z,94739.09
2022-11-04T15:00:34.342Z,94742.31
2022-11-04T15:03:51.951Z,94748.47
2022-11-04T15:06:09.555Z,94758.38
2022-11-04T15:08:46.494Z,94755.97
2022-11-04T15:11:40.755Z,94765.06
2022-11-04T15:14:19.197Z,94762.66
2022-11-04T15:16:53.857Z,94763.19
2022-11-04T15:19:31.472Z,94768.53
2022-11-04T15:22:03.010Z,94767.19
2022-11-04T15:24:35.816Z,94756.50
2022-11-04T15:27:08.119Z,94764.28
2022-11-04T15:29:37.520Z,94768.03
2022-11-04T15:32:07.148Z,94763.47
2022-11-04T15:34:37.676Z,94773.09
2022-11-04T15:37:09.050Z,94777.09
2022-11-04T15:39:46.867Z,94777.09
2022-11-04T15:42:39.490Z,94773.88
2022-11-04T15:45:37.077Z,94777.88
2022-11-04T15:48:31.857Z,94782.94
2022-11-04T15:51:20.002Z,94784.03
2022-11-04T15:53:54.631Z,94774.38
2022-11-04T15:56:29.230Z,94780.53
2022-11-04T15:59:00.924Z,94780.78
2022-11-04T16:01:32.752Z,94785.59
2022-11-04T16:04:03.032Z,94792.50
2022-11-04T16:06:39.599Z,94783.88
2022-11-04T16:09:23.464Z,94783.31
2022-11-04T16:12:16.079Z,94784.34
2022-11-04T16:14:52.107Z,94793.63
2022-11-04T16:17:22.475Z,94794.59
2022-11-04T16:19:56.110Z,94798.00
2022-11-04T16:22:32.506Z,94793.97
2022-11-04T16:25:06.860Z,94792.03
2022-11-04T16:27:38.483Z,94792.50
2022-11-04T16:30:18.642Z,94795.41
2022-11-04T16:32:50.120Z,94795.38
2022-11-04T16:35:23.842Z,94799.59
2022-11-04T16:37:54.415Z,94799.09
2022-11-04T16:40:26.189Z,94805.19
2022-11-04T16:42:58.493Z,94802.22
2022-11-04T16:45:32.696Z,94811.28
2022-11-04T16:48:02.887Z,94815.00
2022-11-04T16:50:33.167Z,94812.66
2022-11-04T16:53:03.608Z,94818.50
2022-11-04T16:55:33.934Z,94818.75
2022-11-04T16:58:06.178Z,94813.66
2022-11-04T17:00:39.067Z,94819.81
2022-11-04T17:03:21.823Z,94812.84
2022-11-04T17:05:54.247Z,94817.94
2022-11-04T17:08:24.330Z,94815.00
2022-11-04T17:10:54.254Z,94818.25
2022-11-04T17:13:25.285Z,94820.66
2022-11-04T17:15:55.491Z,94824.94
2022-11-04T17:18:25.247Z,94826.53
2022-11-04T17:20:57.052Z,94825.47
2022-11-04T17:23:26.882Z,94836.72
2022-11-04T17:25:57.137Z,94839.13
2022-11-04T17:28:28.266Z,94839.94
2022-11-04T17:30:57.862Z,94849.81
2022-11-04T17:33:27.675Z,94843.91
2022-11-04T17:35:57.724Z,94850.59
2022-11-04T17:38:27.435Z,94853.28
2022-11-04T17:41:14.329Z,94860.22
2022-11-04T17:44:04.983Z,94866.63
2022-11-04T17:46:35.910Z,94872.75
2022-11-04T17:49:11.476Z,94875.97
2022-11-04T17:51:43.809Z,94869.59
2022-11-04T17:54:14.253Z,94875.72
2022-11-04T17:56:44.346Z,94879.44
2022-11-04T17:59:17.345Z,94881.31
2022-11-04T18:01:47.236Z,94883.44
2022-11-04T18:04:20.462Z,94885.59
2022-11-04T18:06:50.763Z,94886.66
2022-11-04T18:09:20.643Z,94883.44
2022-11-04T18:12:07.584Z,94887.47
2022-11-04T18:14:38.283Z,94887.22
2022-11-04T18:17:07.804Z,94887.47
2022-11-04T18:19:37.226Z,94888.00
2022-11-04T18:22:06.592Z,94888.25
2022-11-04T18:24:36.103Z,94892.78
2022-11-04T18:27:05.755Z,94896.56
2022-11-04T18:29:35.218Z,94899.75
2022-11-04T18:32:06.798Z,94904.53
2022-11-04T18:34:36.147Z,94911.72
2022-11-04T18:37:05.540Z,94921.59
2022-11-04T18:39:34.778Z,94921.84
2022-11-04T18:42:03.861Z,94923.72
2022-11-04T18:44:33.136Z,94926.63
2022-11-04T18:47:02.699Z,94926.94
2022-11-04T18:49:33.446Z,94925.31
2022-11-04T18:52:02.953Z,94935.69
2022-11-04T18:54:32.599Z,94937.81
2022-11-04T18:57:01.966Z,94943.13
2022-11-04T18:59:31.409Z,94938.06
2022-11-04T19:02:00.916Z,94946.84
2022-11-04T19:04:30.215Z,94938.31
2022-11-04T19:07:00.760Z,94943.06
2022-11-04T19:09:47.041Z,94944.13
2022-11-04T19:12:35.527Z,94955.56
2022-11-04T19:15:07.658Z,94960.34
2022-11-04T19:17:37.893Z,94952.84
2022-11-04T19:20:12.702Z,94967.50
2022-11-04T19:22:44.215Z,94962.91
2022-11-04T19:25:13.718Z,94959.63
2022-11-04T19:27:43.237Z,94958.19
2022-11-04T19:30:14.455Z,94967.50
2022-11-04T19:32:43.849Z,94972.78
2022-11-04T19:35:13.229Z,94969.75
2022-11-04T19:37:43.962Z,94984.84
2022-11-04T19:40:13.842Z,94988.75
2022-11-04T19:43:00.779Z,94991.53
2022-11-04T19:45:30.152Z,94999.63
2022-11-04T19:47:59.595Z,95001.72
2022-11-04T19:50:28.981Z,95007.28
2022-11-04T19:52:59.787Z,95012.56
2022-11-04T19:55:29.866Z,95006.34
2022-11-04T19:57:59.545Z,95016.69
2022-11-04T20:00:29.677Z,95031.84
2022-11-04T20:02:59.277Z,95031.63
2022-11-04T20:05:28.670Z,95031.63
2022-11-04T20:08:05.682Z,95037.66
2022-11-04T20:10:39.584Z,95038.38
2022-11-04T20:13:35.103Z,95039.84
2022-11-04T20:16:15.643Z,95049.28
2022-11-04T20:18:46.514Z,95057.66
2022-11-04T20:21:16.759Z,95056.44
2022-11-04T20:23:48.254Z,95060.88
2022-11-04T20:26:22.886Z,95061.59
2022-11-04T20:28:54.567Z,95067.38
2022-11-04T20:31:27.249Z,95068.19
2022-11-04T20:33:57.963Z,95074.09
2022-11-04T20:36:30.048Z,95065.06
2022-11-04T20:39:04.517Z,95078.13
2022-11-04T20:41:34.757Z,95086.91
2022-11-04T20:44:04.300Z,95096.53
2022-11-04T20:46:35.115Z,95101.38
2022-11-04T20:49:05.801Z,95101.69
2022-11-04T20:51:37.728Z,95109.41
2022-11-04T20:54:08.657Z,95107.34
2022-11-04T20:56:40.951Z,95105.41
2022-11-04T20:59:12.397Z,95104.84
2022-11-04T21:01:46.061Z,95101.97
2022-11-04T21:04:19.995Z,95100.81
2022-11-04T21:06:51.803Z,95115.19
2022-11-04T21:09:23.223Z,95116.47
2022-11-04T21:11:53.183Z,95111.38
2022-11-04T21:14:22.948Z,95106.28
2022-11-04T21:16:52.522Z,95112.09
2022-11-04T21:19:21.935Z,95116.84
2022-11-04T21:21:51.340Z,95123.13
2022-11-04T21:24:22.209Z,95122.53
2022-11-04T21:26:51.874Z,95125.78
2022-11-04T21:29:22.375Z,95132.47
2022-11-04T21:31:51.938Z,95134.91
2022-11-04T21:34:21.329Z,95128.06
2022-11-04T21:36:53.095Z,95128.16
2022-11-04T21:39:23.893Z,95143.19
2022-11-04T21:41:53.260Z,95139.00
2022-11-04T21:44:23.792Z,95138.53
2022-11-04T21:46:53.156Z,95140.47
2022-11-04T21:49:22.624Z,95135.25
2022-11-04T21:51:51.995Z,95139.38
2022-11-04T21:54:22.910Z,95131.25
2022-11-04T21:56:52.340Z,95132.41
2022-11-04T21:59:22.189Z,95129.81
2022-11-04T22:01:51.773Z,95132.56
2022-11-04T22:04:21.277Z,95131.28
2022-11-04T22:06:50.650Z,95130.22
2022-11-04T22:09:20.107Z,95131.59
2022-11-04T22:11:50.915Z,95134.03
2022-11-04T22:14:20.406Z,95134.59
2022-11-04T22:16:49.839Z,95135.16
2022-11-04T22:19:19.214Z,95140.81
2022-11-04T22:21:48.838Z,95136.41
2022-11-04T22:24:19.958Z,95144.78
2022-11-04T22:26:50.704Z,95134.53
2022-11-04T22:29:20.075Z,95144.81
2022-11-04T22:31:49.533Z,95136.16
2022-11-04T22:34:18.947Z,95136.56
2022-11-04T22:36:48.299Z,95138.66
2022-11-04T22:39:17.698Z,95142.47
2022-11-04T22:41:47.916Z,95144.16
2022-11-04T22:44:18.643Z,95142.31
2022-11-04T22:46:48.086Z,95143.34
2022-11-04T22:49:17.750Z,95158.06
2022-11-04T22:51:47.282Z,95156.00
2022-11-04T22:54:17.115Z,95158.44
2022-11-04T22:56:46.487Z,95162.22
2022-11-04T22:59:16.135Z,95157.94
2022-11-04T23:01:46.964Z,95169.09
2022-11-04T23:04:16.522Z,95168.38
2022-11-04T23:06:45.993Z,95172.41
2022-11-04T23:09:15.865Z,95164.91
2022-11-04T23:12:03.475Z,95169.09
2022-11-04T23:14:46.751Z,95171.16
2022-11-04T23:17:39.241Z,95177.66
2022-11-04T23:20:14.512Z,95174.38
2022-11-04T23:23:01.384Z,95178.41
2022-11-04T23:25:30.807Z,95180.56
2022-11-04T23:28:17.794Z,95180.81
2022-11-04T23:30:52.507Z,95185.84
2022-11-04T23:33:43.672Z,95190.44
2022-11-04T23:36:30.960Z,95193.41
2022-11-04T23:39:00.344Z,95193.66
2022-11-04T23:41:47.679Z,95194.47
2022-11-04T23:44:31.031Z,95202.72
2022-11-04T23:47:18.019Z,95205.09
2022-11-04T23:50:06.218Z,95203.53
2022-11-04T23:52:49.482Z,95209.66
2022-11-04T23:55:36.439Z,95204.91
2022-11-04T23:58:23.629Z,95204.56
